Time;durP1;ratioP1;P1;durP2;ratioP2;P2;SDS_P1;SDS_P2;PMS_P1;PMS_P2;Temp;Humidity;BMP_temperature;BMP_pressure;BME280_temperature;BME280_humidity;BME280_pressure;Samples;Min_cycle;Max_cycle;Signal;HPM_P1;HPM_P2
2022/03/26 00:00:15;;;;;;;100.88;42.28;;;;;;;;;;5031733;28;20040;-75
2022/03/26 00:02:41;;;;;;;115.28;42.33;;;;;;;;;;5024323;28;20033;-75
2022/03/26 00:05:07;;;;;;;102.45;41.25;;;;;;;;;;5025622;28;20049;-75
2022/03/26 00:07:33;;;;;;;104.85;41.75;;;;;;;;;;5025791;28;20029;-73
2022/03/26 00:09:59;;;;;;;100.97;41.03;;;;;;;;;;5028969;28;20470;-74
2022/03/26 00:12:25;;;;;;;105.60;41.58;;;;;;;;;;5031623;28;20029;-75
2022/03/26 00:14:51;;;;;;;111.53;42.20;;;;;;;;;;5031484;28;20554;-74
2022/03/26 00:17:17;;;;;;;101.00;41.38;;;;;;;;;;5013255;28;20096;-76
2022/03/26 00:19:43;;;;;;;98.50;39.90;;;;;;;;;;5029826;28;20061;-74
2022/03/26 00:22:09;;;;;;;103.35;40.70;;;;;;;;;;5029855;28;20068;-76
2022/03/26 00:24:35;;;;;;;95.50;40.72;;;;;;;;;;5029211;28;20060;-75
2022/03/26 00:27:01;;;;;;;94.03;39.90;;;;;;;;;;5030075;28;20475;-75
2022/03/26 00:29:27;;;;;;;100.28;40.10;;;;;;;;;;5011860;28;20025;-75
2022/03/26 00:31:55;;;;;;;110.07;38.72;;;;;;;;;;5028467;28;20369;-75
2022/03/26 00:34:21;;;;;;;97.63;40.15;;;;;;;;;;5029755;28;20671;-74
2022/03/26 00:36:47;;;;;;;91.38;38.40;;;;;;;;;;5030309;28;20107;-75
2022/03/26 00:39:13;;;;;;;96.78;39.28;;;;;;;;;;5031115;28;20044;-75
2022/03/26 00:41:39;;;;;;;96.72;39.25;;;;;;;;;;5029689;28;20027;-76
2022/03/26 00:44:05;;;;;;;106.53;39.72;;;;;;;;;;5028586;28;20101;-75
2022/03/26 00:46:31;;;;;;;98.03;39.30;;;;;;;;;;5029546;28;20022;-74
2022/03/26 00:48:58;;;;;;;97.00;39.75;;;;;;;;;;5029942;28;20060;-75
2022/03/26 00:51:24;;;;;;;102.68;40.13;;;;;;;;;;5029814;28;20044;-75
2022/03/26 00:53:50;;;;;;;101.18;40.30;;;;;;;;;;5028977;28;20491;-75
2022/03/26 00:56:17;;;;;;;108.43;40.20;;;;;;;;;;5011726;28;20785;-75
2022/03/26 00:58:43;;;;;;;98.90;39.92;;;;;;;;;;5027827;28;20091;-75
2022/03/26 01:01:11;;;;;;;110.07;41.85;;;;;;;;;;5030104;28;20483;-76
2022/03/26 01:03:37;;;;;;;109.03;43.53;;;;;;;;;;5030098;28;20041;-76
2022/03/26 01:06:04;;;;;;;118.88;44.53;;;;;;;;;;5028842;28;20045;-75
2022/03/26 01:08:30;;;;;;;110.78;43.67;;;;;;;;;;5027689;28;20029;-75
2022/03/26 01:10:56;;;;;;;112.78;42.40;;;;;;;;;;5028519;28;20463;-74
2022/03/26 01:13:25;;;;;;;118.60;44.67;;;;;;;;;;5011899;28;20128;-76
2022/03/26 01:15:51;;;;;;;126.65;46.38;;;;;;;;;;5028364;28;20041;-74
2022/03/26 01:18:17;;;;;;;124.50;45.15;;;;;;;;;;5026907;28;20065;-75
2022/03/26 01:20:43;;;;;;;116.57;45.92;;;;;;;;;;5028869;28;20061;-76
2022/03/26 01:23:09;;;;;;;129.43;46.75;;;;;;;;;;5029197;28;20502;-75
2022/03/26 01:25:35;;;;;;;133.45;44.53;;;;;;;;;;5028256;28;20064;-75
2022/03/26 01:28:02;;;;;;;124.97;46.72;;;;;;;;;;5028515;28;20033;-74
2022/03/26 01:30:28;;;;;;;118.03;45.30;;;;;;;;;;5028141;28;20029;-74
2022/03/26 01:32:55;;;;;;;117.90;44.60;;;;;;;;;;5028637;28;20431;-74
2022/03/26 01:35:21;;;;;;;116.05;42.47;;;;;;;;;;5027123;28;20075;-74
2022/03/26 01:37:48;;;;;;;118.32;42.58;;;;;;;;;;5027933;28;20049;-74
2022/03/26 01:40:14;;;;;;;120.75;43.60;;;;;;;;;;5027819;28;20021;-74
2022/03/26 01:42:42;;;;;;;119.82;45.20;;;;;;;;;;5028693;28;20095;-75
2022/03/26 01:45:12;;;;;;;119.18;44.67;;;;;;;;;;5026099;28;20037;-75
2022/03/26 01:47:38;;;;;;;133.93;48.58;;;;;;;;;;5027971;28;20475;-74
2022/03/26 01:50:05;;;;;;;133.85;46.45;;;;;;;;;;5010612;28;20118;-73
2022/03/26 01:52:31;;;;;;;146.60;48.38;;;;;;;;;;5027625;28;20060;-74
2022/03/26 01:54:57;;;;;;;139.63;49.20;;;;;;;;;;5029032;28;20045;-75
2022/03/26 01:57:24;;;;;;;147.68;49.30;;;;;;;;;;5027697;28;20018;-75
2022/03/26 01:59:50;;;;;;;130.52;48.10;;;;;;;;;;5028352;28;20061;-75
2022/03/26 02:02:16;;;;;;;131.55;48.00;;;;;;;;;;5027097;28;20040;-74
2022/03/26 02:04:42;;;;;;;117.95;45.03;;;;;;;;;;5026839;28;20106;-74
2022/03/26 02:07:08;;;;;;;146.00;50.00;;;;;;;;;;5028437;28;20081;-76
2022/03/26 02:09:35;;;;;;;129.38;46.58;;;;;;;;;;5028636;28;20110;-76
2022/03/26 02:12:02;;;;;;;131.63;46.40;;;;;;;;;;5026925;28;20061;-76
2022/03/26 02:14:28;;;;;;;130.80;46.25;;;;;;;;;;5027459;28;20033;-75
2022/03/26 02:16:54;;;;;;;128.15;47.13;;;;;;;;;;5027843;28;20017;-75
2022/03/26 02:19:20;;;;;;;115.35;43.85;;;;;;;;;;5025032;28;20092;-75
2022/03/26 02:21:49;;;;;;;124.85;46.08;;;;;;;;;;5025329;28;20028;-75
2022/03/26 02:24:15;;;;;;;123.80;44.65;;;;;;;;;;5027823;28;20021;-75
2022/03/26 02:26:41;;;;;;;109.15;42.97;;;;;;;;;;5027307;28;20029;-74
2022/03/26 02:29:11;;;;;;;117.18;40.78;;;;;;;;;;5025133;28;20025;-75
2022/03/26 02:31:38;;;;;;;99.78;40.10;;;;;;;;;;5027846;28;20017;-75
2022/03/26 02:34:05;;;;;;;98.70;39.55;;;;;;;;;;5026046;28;20128;-74
2022/03/26 02:36:31;;;;;;;99.97;40.63;;;;;;;;;;5027644;28;20502;-76
2022/03/26 02:38:58;;;;;;;105.15;40.30;;;;;;;;;;5010093;28;20048;-74
2022/03/26 02:41:24;;;;;;;101.65;39.72;;;;;;;;;;5027392;28;20025;-74
2022/03/26 02:43:50;;;;;;;102.00;39.20;;;;;;;;;;5027882;28;20176;-75
2022/03/26 02:46:16;;;;;;;106.10;40.80;;;;;;;;;;5026840;28;20151;-75
2022/03/26 02:48:44;;;;;;;106.57;41.80;;;;;;;;;;5027260;28;20057;-75
2022/03/26 02:51:10;;;;;;;119.50;42.25;;;;;;;;;;5026523;28;20434;-76
2022/03/26 02:53:36;;;;;;;118.93;43.05;;;;;;;;;;5028006;28;20036;-75
2022/03/26 02:56:02;;;;;;;126.03;43.63;;;;;;;;;;5028514;28;20048;-75
2022/03/26 02:58:29;;;;;;;154.10;48.85;;;;;;;;;;5026567;28;20040;-74
2022/03/26 03:00:55;;;;;;;127.47;44.60;;;;;;;;;;5025772;28;20219;-75
2022/03/26 03:03:21;;;;;;;138.05;46.97;;;;;;;;;;5024188;28;20549;-75
2022/03/26 03:05:47;;;;;;;127.65;47.15;;;;;;;;;;5028189;28;20471;-74
2022/03/26 03:08:16;;;;;;;125.85;43.75;;;;;;;;;;5027123;28;20033;-74
2022/03/26 03:10:44;;;;;;;115.75;43.95;;;;;;;;;;5026629;28;20037;-75
2022/03/26 03:13:11;;;;;;;121.28;43.90;;;;;;;;;;5024215;28;20031;-75
2022/03/26 03:15:37;;;;;;;123.82;44.47;;;;;;;;;;5027061;28;20431;-75
2022/03/26 03:18:03;;;;;;;112.32;42.65;;;;;;;;;;5023897;28;20065;-75
2022/03/26 03:20:30;;;;;;;121.93;45.13;;;;;;;;;;5022799;28;20116;-75
2022/03/26 03:22:59;;;;;;;120.53;44.65;;;;;;;;;;5025217;28;20036;-75
2022/03/26 03:25:26;;;;;;;114.88;43.25;;;;;;;;;;5022844;28;20033;-74
2022/03/26 03:27:52;;;;;;;115.78;43.22;;;;;;;;;;5024803;28;20033;-74
2022/03/26 03:30:18;;;;;;;118.60;42.83;;;;;;;;;;5010190;28;20033;-74
2022/03/26 03:32:45;;;;;;;119.72;43.10;;;;;;;;;;5024439;28;20038;-74
2022/03/26 03:35:11;;;;;;;115.30;42.65;;;;;;;;;;5026884;28;20021;-74
2022/03/26 03:37:38;;;;;;;115.50;42.15;;;;;;;;;;5025026;28;20065;-73
2022/03/26 03:40:05;;;;;;;112.95;41.92;;;;;;;;;;5027507;28;20035;-73
2022/03/26 03:42:31;;;;;;;114.28;42.50;;;;;;;;;;5025297;28;20032;-75
2022/03/26 03:44:57;;;;;;;110.38;40.92;;;;;;;;;;5025419;28;20033;-75
2022/03/26 03:47:24;;;;;;;105.30;40.72;;;;;;;;;;5028046;28;20067;-75
2022/03/26 03:49:50;;;;;;;111.50;39.47;;;;;;;;;;5027591;28;20025;-75
2022/03/26 03:52:17;;;;;;;115.57;40.83;;;;;;;;;;5027657;28;20033;-75
2022/03/26 03:54:43;;;;;;;116.43;40.15;;;;;;;;;;5025886;28;20038;-75
2022/03/26 03:57:09;;;;;;;110.05;39.30;;;;;;;;;;5025793;28;20057;-74
2022/03/26 03:59:40;;;;;;;115.20;43.55;;;;;;;;;;5025296;28;20030;-74
2022/03/26 04:02:08;;;;;;;;;;;;;;;;;;5026213;28;20020;-73
2022/03/26 04:04:34;;;;;;;113.28;41.92;;;;;;;;;;5027962;28;19917;-74
2022/03/26 04:07:00;;;;;;;123.97;41.75;;;;;;;;;;5027893;28;20033;-75
2022/03/26 04:09:26;;;;;;;118.00;43.03;;;;;;;;;;5028199;28;20044;-74
2022/03/26 04:11:52;;;;;;;123.50;45.38;;;;;;;;;;5025488;28;20166;-75
2022/03/26 04:14:18;;;;;;;126.03;43.53;;;;;;;;;;5026932;28;20037;-74
2022/03/26 04:16:44;;;;;;;124.38;42.58;;;;;;;;;;5028119;28;20117;-74
2022/03/26 04:19:10;;;;;;;125.35;43.50;;;;;;;;;;5026700;28;20449;-74
2022/03/26 04:21:36;;;;;;;126.93;44.28;;;;;;;;;;5027648;28;20151;-74
2022/03/26 04:24:02;;;;;;;121.68;44.00;;;;;;;;;;5027125;28;20113;-75
2022/03/26 04:26:28;;;;;;;129.20;45.47;;;;;;;;;;5025455;28;20370;-74
2022/03/26 04:28:55;;;;;;;126.90;45.00;;;;;;;;;;5026552;28;20509;-74
2022/03/26 04:31:21;;;;;;;122.53;43.35;;;;;;;;;;5027118;28;20056;-74
2022/03/26 04:33:47;;;;;;;124.20;41.90;;;;;;;;;;5027347;28;20026;-74
2022/03/26 04:36:13;;;;;;;133.90;43.88;;;;;;;;;;5026453;28;20034;-74
2022/03/26 04:38:39;;;;;;;128.25;39.78;;;;;;;;;;5027819;28;20116;-75
2022/03/26 04:41:05;;;;;;;114.05;39.28;;;;;;;;;;5026653;28;20025;-75
2022/03/26 04:43:31;;;;;;;116.88;38.13;;;;;;;;;;5025058;28;20104;-73
2022/03/26 04:45:57;;;;;;;121.07;41.08;;;;;;;;;;5023597;28;20036;-74
2022/03/26 04:48:23;;;;;;;112.95;39.03;;;;;;;;;;5025085;28;20033;-74
2022/03/26 04:50:50;;;;;;;118.72;40.83;;;;;;;;;;5025464;28;20107;-74
2022/03/26 04:53:16;;;;;;;120.45;41.75;;;;;;;;;;5024483;28;20029;-74
2022/03/26 04:55:43;;;;;;;136.75;44.22;;;;;;;;;;5026717;28;20045;-74
2022/03/26 04:58:09;;;;;;;144.32;45.75;;;;;;;;;;5028641;28;20483;-74
2022/03/26 05:00:35;;;;;;;134.88;45.78;;;;;;;;;;5029041;28;20493;-74
2022/03/26 05:03:01;;;;;;;147.93;46.22;;;;;;;;;;5027470;28;20049;-74
2022/03/26 05:05:27;;;;;;;154.05;48.58;;;;;;;;;;5030403;28;20034;-74
2022/03/26 05:07:55;;;;;;;156.88;48.00;;;;;;;;;;5030058;28;20116;-73
2022/03/26 05:10:27;;;;;;;145.25;44.70;;;;;;;;;;5011623;28;20033;-75
2022/03/26 05:12:54;;;;;;;145.38;46.50;;;;;;;;;;5025552;28;20029;-74
2022/03/26 05:15:24;;;;;;;153.20;49.03;;;;;;;;;;5026947;28;20179;-74
2022/03/26 05:17:51;;;;;;;153.33;48.53;;;;;;;;;;5029053;28;20510;-74
2022/03/26 05:20:18;;;;;;;149.05;47.60;;;;;;;;;;5028703;28;20037;-75
2022/03/26 05:22:45;;;;;;;166.23;50.33;;;;;;;;;;5028781;28;20259;-74
2022/03/26 05:25:12;;;;;;;166.43;48.70;;;;;;;;;;5030886;28;20025;-74
2022/03/26 05:27:38;;;;;;;178.48;54.22;;;;;;;;;;5008729;28;20503;-74
2022/03/26 05:30:05;;;;;;;158.25;47.08;;;;;;;;;;5028870;28;20420;-75
2022/03/26 05:32:31;;;;;;;130.30;43.38;;;;;;;;;;5028823;28;20033;-75
2022/03/26 05:34:58;;;;;;;132.75;41.50;;;;;;;;;;5028203;28;20040;-75
2022/03/26 05:37:24;;;;;;;117.60;38.97;;;;;;;;;;5027644;28;20199;-75
2022/03/26 05:39:50;;;;;;;114.63;36.95;;;;;;;;;;5027930;28;20026;-75
2022/03/26 05:42:17;;;;;;;117.18;39.55;;;;;;;;;;5028771;28;20048;-75
2022/03/26 05:44:43;;;;;;;117.65;38.42;;;;;;;;;;5029623;28;20049;-76
2022/03/26 05:47:09;;;;;;;128.93;43.47;;;;;;;;;;5023316;28;20037;-75
2022/03/26 05:49:35;;;;;;;151.27;45.63;;;;;;;;;;5028148;28;20072;-75
2022/03/26 05:52:01;;;;;;;126.25;42.10;;;;;;;;;;5029217;28;20053;-75
2022/03/26 05:54:27;;;;;;;111.80;38.28;;;;;;;;;;5028937;28;20385;-74
2022/03/26 05:56:54;;;;;;;112.85;38.70;;;;;;;;;;5027646;28;20211;-76
2022/03/26 05:59:23;;;;;;;98.65;33.92;;;;;;;;;;5028962;28;20517;-74
2022/03/26 06:01:49;;;;;;;120.68;38.55;;;;;;;;;;5027928;28;20040;-74
2022/03/26 06:04:15;;;;;;;137.23;44.30;;;;;;;;;;5029164;28;20032;-74
2022/03/26 06:06:41;;;;;;;146.57;45.10;;;;;;;;;;5027121;28;20113;-75
2022/03/26 06:09:08;;;;;;;117.82;39.10;;;;;;;;;;5028992;28;20041;-74
2022/03/26 06:11:34;;;;;;;114.55;38.45;;;;;;;;;;5027012;28;20511;-75
2022/03/26 06:14:00;;;;;;;96.30;34.85;;;;;;;;;;5009103;28;20068;-76
2022/03/26 06:16:26;;;;;;;115.97;40.17;;;;;;;;;;5028575;28;20064;-75
2022/03/26 06:18:53;;;;;;;137.43;45.35;;;;;;;;;;5028118;28;20550;-74
2022/03/26 06:21:19;;;;;;;127.70;42.15;;;;;;;;;;5025567;28;20083;-75
2022/03/26 06:23:45;;;;;;;130.68;46.03;;;;;;;;;;5010190;28;20498;-76
2022/03/26 06:26:11;;;;;;;137.35;47.40;;;;;;;;;;5026646;28;20458;-77
2022/03/26 06:28:38;;;;;;;130.27;45.80;;;;;;;;;;5028503;28;20025;-75
2022/03/26 06:31:04;;;;;;;130.35;46.22;;;;;;;;;;5030879;28;20033;-74
2022/03/26 06:33:30;;;;;;;120.13;44.88;;;;;;;;;;5029562;28;20029;-76
2022/03/26 06:35:56;;;;;;;118.00;45.25;;;;;;;;;;5027845;28;20033;-75
2022/03/26 06:38:22;;;;;;;139.23;47.92;;;;;;;;;;5026740;28;20053;-74
2022/03/26 06:40:49;;;;;;;107.38;44.72;;;;;;;;;;5028250;28;20032;-74
2022/03/26 06:43:15;;;;;;;97.78;41.28;;;;;;;;;;5026629;28;20025;-73
2022/03/26 06:45:41;;;;;;;87.70;39.03;;;;;;;;;;5026121;28;20635;-74
2022/03/26 06:48:07;;;;;;;82.00;38.20;;;;;;;;;;5027980;28;20037;-73
2022/03/26 06:50:34;;;;;;;82.10;38.20;;;;;;;;;;5029543;28;20032;-74
2022/03/26 06:53:00;;;;;;;65.22;32.03;;;;;;;;;;5026556;28;20039;-74
2022/03/26 06:55:27;;;;;;;69.63;31.25;;;;;;;;;;5028050;28;20037;-76
2022/03/26 06:57:53;;;;;;;78.65;34.30;;;;;;;;;;5026302;28;20045;-73
2022/03/26 07:00:19;;;;;;;76.85;33.78;;;;;;;;;;5027002;28;20018;-73
2022/03/26 07:02:45;;;;;;;61.97;31.13;;;;;;;;;;5027964;28;20108;-74
2022/03/26 07:05:12;;;;;;;62.72;31.35;;;;;;;;;;5026595;28;20033;-73
2022/03/26 07:07:38;;;;;;;65.65;33.17;;;;;;;;;;5024306;28;20036;-74
2022/03/26 07:10:04;;;;;;;76.22;36.70;;;;;;;;;;5027015;28;20030;-75
2022/03/26 07:12:31;;;;;;;69.20;35.60;;;;;;;;;;5026330;28;20490;-75
2022/03/26 07:14:57;;;;;;;76.80;36.38;;;;;;;;;;5026342;28;20036;-75
2022/03/26 07:17:23;;;;;;;76.75;37.92;;;;;;;;;;5025894;28;20037;-75
2022/03/26 07:19:51;;;;;;;82.50;39.92;;;;;;;;;;5027243;28;20176;-74
2022/03/26 07:22:17;;;;;;;90.82;41.08;;;;;;;;;;5023440;28;20151;-74
2022/03/26 07:24:43;;;;;;;88.50;42.58;;;;;;;;;;5026595;28;20045;-74
2022/03/26 07:27:09;;;;;;;96.88;44.40;;;;;;;;;;5022664;28;20025;-74
2022/03/26 07:29:38;;;;;;;95.45;46.10;;;;;;;;;;5026635;28;20029;-76
2022/03/26 07:32:06;;;;;;;103.03;47.15;;;;;;;;;;5023136;28;20030;-74
2022/03/26 07:34:32;;;;;;;102.65;45.97;;;;;;;;;;5023756;28;20084;-74
2022/03/26 07:36:58;;;;;;;91.10;46.63;;;;;;;;;;5022986;28;20041;-75
2022/03/26 07:39:25;;;;;;;99.25;46.78;;;;;;;;;;5025022;28;20618;-74
2022/03/26 07:41:51;;;;;;;98.65;48.33;;;;;;;;;;5026841;28;20026;-75
2022/03/26 07:44:17;;;;;;;101.90;48.35;;;;;;;;;;5024244;28;20466;-75
2022/03/26 07:46:43;;;;;;;100.45;47.17;;;;;;;;;;5022471;28;20037;-74
2022/03/26 07:49:09;;;;;;;101.18;48.00;;;;;;;;;;5027837;28;20467;-74
2022/03/26 07:51:35;;;;;;;103.72;47.30;;;;;;;;;;5028203;28;20037;-75
2022/03/26 07:54:02;;;;;;;89.75;44.90;;;;;;;;;;5027441;28;20025;-74
2022/03/26 07:56:28;;;;;;;95.93;45.25;;;;;;;;;;5027742;28;20094;-75
2022/03/26 07:58:54;;;;;;;91.78;45.10;;;;;;;;;;5026235;28;20034;-75
2022/03/26 08:01:20;;;;;;;96.95;45.13;;;;;;;;;;5027306;28;20032;-76
2022/03/26 08:03:52;;;;;;;96.28;44.92;;;;;;;;;;5029263;28;20120;-74
2022/03/26 08:06:18;;;;;;;90.18;44.33;;;;;;;;;;5026815;28;20025;-74
2022/03/26 08:08:44;;;;;;;89.03;45.28;;;;;;;;;;5027145;28;20115;-74
2022/03/26 08:11:10;;;;;;;89.63;45.83;;;;;;;;;;5027349;28;20479;-74
2022/03/26 08:13:36;;;;;;;86.78;45.92;;;;;;;;;;5027300;28;20131;-75
2022/03/26 08:16:02;;;;;;;97.47;46.10;;;;;;;;;;5026305;28;20030;-76
2022/03/26 08:18:28;;;;;;;89.43;45.10;;;;;;;;;;5025330;28;20037;-74
2022/03/26 08:20:54;;;;;;;87.55;44.92;;;;;;;;;;5027983;28;20036;-74
2022/03/26 08:23:20;;;;;;;95.90;46.55;;;;;;;;;;5026384;28;20119;-75
2022/03/26 08:28:31;;;;;;;92.93;46.60;;;;;;;;;;5027303;28;20044;-74
2022/03/26 08:30:57;;;;;;;87.82;43.92;;;;;;;;;;5026999;28;20074;-74
2022/03/26 08:33:23;;;;;;;91.15;45.88;;;;;;;;;;5031739;28;20030;-74
2022/03/26 08:35:49;;;;;;;91.72;45.53;;;;;;;;;;5031599;28;20022;-75
2022/03/26 08:38:15;;;;;;;89.43;44.78;;;;;;;;;;5030904;28;20550;-73
2022/03/26 08:40:41;;;;;;;85.68;45.08;;;;;;;;;;5031204;28;20113;-74
2022/03/26 08:43:08;;;;;;;95.45;44.42;;;;;;;;;;5030558;28;20044;-74
2022/03/26 08:45:35;;;;;;;84.97;42.63;;;;;;;;;;5031205;28;20678;-76
2022/03/26 08:48:01;;;;;;;90.65;43.72;;;;;;;;;;5030252;28;20029;-76
2022/03/26 08:50:28;;;;;;;91.43;42.28;;;;;;;;;;5030886;28;20036;-73
2022/03/26 08:52:54;;;;;;;86.22;41.90;;;;;;;;;;5032729;28;20025;-74
2022/03/26 08:55:21;;;;;;;81.82;38.17;;;;;;;;;;5032492;28;20089;-76
2022/03/26 08:57:47;;;;;;;76.55;39.47;;;;;;;;;;5032388;28;20134;-75
2022/03/26 09:00:13;;;;;;;93.22;42.83;;;;;;;;;;5030770;28;20026;-75
2022/03/26 09:02:41;;;;;;;69.20;35.83;;;;;;;;;;5030780;28;20033;-76
2022/03/26 09:05:07;;;;;;;79.85;39.13;;;;;;;;;;5033142;28;20112;-74
2022/03/26 09:07:34;;;;;;;75.38;36.58;;;;;;;;;;5031555;28;20111;-75
2022/03/26 09:10:00;;;;;;;69.88;35.05;;;;;;;;;;5032689;28;20456;-76
2022/03/26 09:12:26;;;;;;;59.05;28.98;;;;;;;;;;5032168;28;20127;-74
2022/03/26 09:14:52;;;;;;;59.25;29.88;;;;;;;;;;5031097;28;20034;-75
2022/03/26 09:17:18;;;;;;;57.35;31.02;;;;;;;;;;5032371;28;20079;-76
2022/03/26 09:19:44;;;;;;;74.20;33.90;;;;;;;;;;5034388;28;20025;-74
2022/03/26 09:22:10;;;;;;;64.68;33.83;;;;;;;;;;5033089;28;20029;-77
2022/03/26 09:24:36;;;;;;;66.20;35.00;;;;;;;;;;5032507;28;20021;-75
2022/03/26 09:27:03;;;;;;;68.20;36.97;;;;;;;;;;5032569;28;20048;-74
2022/03/26 09:29:29;;;;;;;72.95;40.05;;;;;;;;;;5032855;28;20458;-76
2022/03/26 09:31:55;;;;;;;74.47;38.58;;;;;;;;;;5033740;28;20025;-75
2022/03/26 09:34:21;;;;;;;69.82;37.75;;;;;;;;;;5034603;28;20064;-76
2022/03/26 09:36:47;;;;;;;71.93;38.50;;;;;;;;;;5031620;28;20033;-75
2022/03/26 09:39:13;;;;;;;72.88;39.08;;;;;;;;;;5031665;28;20032;-76
2022/03/26 09:41:40;;;;;;;74.78;39.08;;;;;;;;;;5031174;28;20022;-75
2022/03/26 09:44:06;;;;;;;83.72;41.38;;;;;;;;;;5030866;28;20402;-75
2022/03/26 09:46:35;;;;;;;77.72;40.40;;;;;;;;;;5032251;28;20041;-76
2022/03/26 09:49:03;;;;;;;81.22;39.17;;;;;;;;;;5014988;28;20033;-74
2022/03/26 09:51:29;;;;;;;74.10;34.85;;;;;;;;;;5031725;28;20056;-74
2022/03/26 09:53:56;;;;;;;61.60;30.48;;;;;;;;;;5030693;28;20047;-75
2022/03/26 09:56:23;;;;;;;60.67;30.13;;;;;;;;;;5031097;28;20490;-76
2022/03/26 09:58:51;;;;;;;61.92;32.25;;;;;;;;;;5031551;28;20049;-75
2022/03/26 10:01:17;;;;;;;62.97;29.48;;;;;;;;;;5027088;28;20026;-76
2022/03/26 10:04:03;;;;;;;61.60;30.10;;;;;;;;;;5029159;28;20037;-76
2022/03/26 10:06:29;;;;;;;64.30;31.30;;;;;;;;;;5029179;28;20076;-76
2022/03/26 10:08:55;;;;;;;58.92;30.15;;;;;;;;;;5030028;28;20061;-74
2022/03/26 10:11:21;;;;;;;65.72;31.38;;;;;;;;;;5030482;28;20068;-74
2022/03/26 10:13:48;;;;;;;65.10;33.83;;;;;;;;;;5031003;28;20021;-74
2022/03/26 10:16:15;;;;;;;67.60;33.38;;;;;;;;;;5030190;28;20061;-75
2022/03/26 10:18:42;;;;;;;63.20;35.13;;;;;;;;;;5030843;28;20076;-76
2022/03/26 10:21:09;;;;;;;60.33;32.97;;;;;;;;;;5027348;28;20124;-75
2022/03/26 10:23:36;;;;;;;67.55;35.53;;;;;;;;;;5027197;28;20516;-75
2022/03/26 10:26:09;;;;;;;67.45;37.15;;;;;;;;;;5029351;28;20037;-76
2022/03/26 10:28:35;;;;;;;66.00;35.97;;;;;;;;;;5027590;28;20091;-75
2022/03/26 10:34:02;;;;;;;68.28;37.67;;;;;;;;;;5026373;28;20079;-75
2022/03/26 10:36:28;;;;;;;84.70;38.88;;;;;;;;;;5016184;28;20037;-74
2022/03/26 10:38:54;;;;;;;88.20;38.92;;;;;;;;;;5022921;28;20049;-75
2022/03/26 10:41:23;;;;;;;70.88;38.10;;;;;;;;;;5027682;28;20091;-73
2022/03/26 10:44:06;;;;;;;77.32;40.40;;;;;;;;;;5029303;28;20080;-76
2022/03/26 10:46:40;;;;;;;79.05;43.10;;;;;;;;;;5030068;28;20033;-74
2022/03/26 10:49:06;;;;;;;80.13;44.42;;;;;;;;;;5029627;28;20410;-75
2022/03/26 10:51:36;;;;;;;81.65;42.65;;;;;;;;;;5028500;28;20494;-74
2022/03/26 10:54:08;;;;;;;79.45;42.13;;;;;;;;;;5027958;28;20034;-75
2022/03/26 10:56:34;;;;;;;79.03;43.00;;;;;;;;;;5027021;28;20038;-74
2022/03/26 10:59:02;;;;;;;80.85;43.28;;;;;;;;;;5026771;28;20032;-74
2022/03/26 11:01:28;;;;;;;76.20;41.83;;;;;;;;;;5027213;28;20025;-73
2022/03/26 11:03:54;;;;;;;70.78;39.97;;;;;;;;;;5028537;28;20096;-74
2022/03/26 11:06:24;;;;;;;72.22;37.17;;;;;;;;;;5026907;28;20033;-74
2022/03/26 11:08:51;;;;;;;73.78;38.83;;;;;;;;;;5024317;28;20128;-75
2022/03/26 11:11:18;;;;;;;63.25;35.08;;;;;;;;;;5028072;28;20032;-76
2022/03/26 11:13:48;;;;;;;67.57;35.70;;;;;;;;;;5028249;28;20059;-76
2022/03/26 11:16:14;;;;;;;;;;;;;;;;;;5028422;28;20033;-76
2022/03/26 11:18:40;;;;;;;67.15;35.28;;;;;;;;;;5028000;28;19966;-74
2022/03/26 11:21:09;;;;;;;64.93;34.38;;;;;;;;;;5027889;28;20029;-75
2022/03/26 11:23:54;;;;;;;65.65;34.00;;;;;;;;;;5026492;28;20111;-75
2022/03/26 11:26:36;;;;;;;67.50;31.65;;;;;;;;;;5028724;28;20047;-75
2022/03/26 11:29:20;;;;;;;65.30;33.10;;;;;;;;;;5028068;28;20033;-74
2022/03/26 11:31:55;;;;;;;59.33;31.25;;;;;;;;;;5026682;28;20030;-73
2022/03/26 11:34:21;;;;;;;61.20;30.45;;;;;;;;;;5025801;28;20052;-75
2022/03/26 11:36:51;;;;;;;61.83;31.10;;;;;;;;;;5026793;28;20033;-75
2022/03/26 11:39:18;;;;;;;66.80;32.63;;;;;;;;;;5026956;28;20033;-75
2022/03/26 11:41:45;;;;;;;60.03;29.75;;;;;;;;;;5023426;28;20113;-77
2022/03/26 11:44:12;;;;;;;65.13;30.65;;;;;;;;;;5022183;28;20378;-77
2022/03/26 11:52:21;;;;;;;50.53;24.95;;;;;;;;;;5028952;28;20414;-77
2022/03/26 11:55:04;;;;;;;54.60;27.17;;;;;;;;;;5028399;28;20180;-77
2022/03/26 11:57:30;;;;;;;59.08;29.52;;;;;;;;;;5027463;28;20826;-78
2022/03/26 11:59:58;;;;;;;58.03;30.27;;;;;;;;;;5028325;28;20037;-75
2022/03/26 12:02:28;;;;;;;59.17;26.17;;;;;;;;;;5027277;28;20045;-77
2022/03/26 12:04:54;;;;;;;50.13;25.83;;;;;;;;;;5027817;28;20036;-76
2022/03/26 12:07:21;;;;;;;40.75;20.15;;;;;;;;;;5031338;28;20033;-77
2022/03/26 12:09:52;;;;;;;46.22;24.85;;;;;;;;;;5030932;28;20026;-77
2022/03/26 12:12:19;;;;;;;46.15;23.42;;;;;;;;;;5032519;28;20044;-76
2022/03/26 12:15:04;;;;;;;69.60;26.85;;;;;;;;;;5029751;28;20029;-77
2022/03/26 12:17:46;;;;;;;46.58;25.15;;;;;;;;;;5030050;28;20483;-75
2022/03/26 12:20:31;;;;;;;39.88;20.15;;;;;;;;;;5032457;28;20032;-75
2022/03/26 12:23:06;;;;;;;32.67;16.10;;;;;;;;;;5029878;28;20056;-78
2022/03/26 12:25:37;;;;;;;34.42;17.65;;;;;;;;;;5030822;28;20030;-76
2022/03/26 12:28:03;;;;;;;31.83;16.85;;;;;;;;;;5032841;28;20040;-75
2022/03/26 12:30:29;;;;;;;31.88;17.10;;;;;;;;;;5031725;28;20514;-75
2022/03/26 12:32:58;;;;;;;37.30;18.02;;;;;;;;;;5031762;28;20041;-77
2022/03/26 12:35:24;;;;;;;35.28;18.65;;;;;;;;;;5032886;28;20052;-79
2022/03/26 12:37:50;;;;;;;44.83;24.10;;;;;;;;;;5032354;28;20041;-76
2022/03/26 12:40:17;;;;;;;51.95;25.58;;;;;;;;;;5034327;28;20029;-76
2022/03/26 12:42:43;;;;;;;42.95;24.08;;;;;;;;;;5032302;28;20056;-76
2022/03/26 12:45:13;;;;;;;41.00;23.15;;;;;;;;;;5032546;28;20041;-74
2022/03/26 12:47:43;;;;;;;39.95;22.70;;;;;;;;;;5032824;28;20078;-81
2022/03/26 12:50:10;;;;;;;33.97;17.95;;;;;;;;;;5030245;28;20033;-74
2022/03/26 12:52:37;;;;;;;43.10;23.30;;;;;;;;;;5031163;28;20033;-76
2022/03/26 12:55:03;;;;;;;33.05;17.42;;;;;;;;;;5031728;28;20052;-76
2022/03/26 13:00:14;;;;;;;40.25;21.38;;;;;;;;;;5027607;28;20036;-75
2022/03/26 13:02:40;;;;;;;38.78;20.58;;;;;;;;;;5028841;28;20025;-75
2022/03/26 13:05:09;;;;;;;37.55;20.80;;;;;;;;;;5031155;28;20161;-75
2022/03/26 13:07:38;;;;;;;30.95;15.70;;;;;;;;;;5029801;28;20091;-76
2022/03/26 13:10:04;;;;;;;40.45;21.15;;;;;;;;;;5028241;28;20478;-75
2022/03/26 13:12:31;;;;;;;40.60;22.10;;;;;;;;;;5028344;28;20029;-73
2022/03/26 13:14:57;;;;;;;50.67;23.10;;;;;;;;;;5030192;28;20107;-76
2022/03/26 13:17:24;;;;;;;41.45;20.80;;;;;;;;;;5029058;28;20029;-75
2022/03/26 13:19:56;;;;;;;44.03;21.52;;;;;;;;;;5030185;28;20711;-74
2022/03/26 13:22:26;;;;;;;41.40;22.13;;;;;;;;;;5029002;28;20467;-76
2022/03/26 13:24:52;;;;;;;42.58;23.33;;;;;;;;;;5031070;28;20041;-74
2022/03/26 13:27:19;;;;;;;42.20;21.77;;;;;;;;;;5030571;28;20505;-75
2022/03/26 13:29:46;;;;;;;47.20;23.50;;;;;;;;;;5031129;28;20026;-75
2022/03/26 13:32:12;;;;;;;45.20;21.90;;;;;;;;;;5031405;28;20034;-73
2022/03/26 13:34:39;;;;;;;41.90;21.52;;;;;;;;;;5033206;28;20060;-76
2022/03/26 13:37:11;;;;;;;47.17;23.27;;;;;;;;;;5031303;28;20021;-75
2022/03/26 13:39:38;;;;;;;49.67;23.95;;;;;;;;;;5031147;28;20033;-76
2022/03/26 13:42:18;;;;;;;54.35;24.95;;;;;;;;;;5030365;28;20021;-75
2022/03/26 13:44:45;;;;;;;51.28;23.85;;;;;;;;;;5032147;28;20289;-75
2022/03/26 13:47:19;;;;;;;54.45;24.77;;;;;;;;;;5030352;28;20124;-72
2022/03/26 13:49:45;;;;;;;53.30;24.48;;;;;;;;;;5030933;28;20036;-75
2022/03/26 13:52:28;;;;;;;47.55;24.50;;;;;;;;;;5030846;28;20072;-75
2022/03/26 13:54:55;;;;;;;53.03;25.63;;;;;;;;;;5031009;28;20045;-72
2022/03/26 13:57:30;;;;;;;50.40;24.88;;;;;;;;;;5030043;28;20124;-76
2022/03/26 13:59:56;;;;;;;88.97;27.80;;;;;;;;;;5031221;28;20207;-73
2022/03/26 14:02:26;;;;;;;81.45;28.15;;;;;;;;;;5029644;28;20034;-73
2022/03/26 14:04:52;;;;;;;49.30;23.42;;;;;;;;;;5030240;28;20040;-75
2022/03/26 14:07:18;;;;;;;41.28;21.10;;;;;;;;;;5030858;28;20021;-73
2022/03/26 14:09:53;;;;;;;46.70;19.65;;;;;;;;;;5031138;28;20033;-73
2022/03/26 14:12:20;;;;;;;42.35;18.60;;;;;;;;;;5025987;28;20037;-72
2022/03/26 14:14:46;;;;;;;34.97;16.52;;;;;;;;;;5029628;28;20041;-74
2022/03/26 14:17:12;;;;;;;42.97;16.33;;;;;;;;;;5029880;28;20116;-74
2022/03/26 14:19:39;;;;;;;34.83;16.25;;;;;;;;;;5031467;28;20026;-74
2022/03/26 14:22:05;;;;;;;30.10;14.07;;;;;;;;;;5030228;28;20461;-73
2022/03/26 14:24:31;;;;;;;49.53;14.68;;;;;;;;;;5028251;28;20037;-76